Jerome, Missouri
Current Conditions -  °F | °C
As of 11:58 PM on Monday 26 Jan 2015 (Local Time) from KTBN Reporting Station
Clear Clear  
Wind Chill: 41°   Ceiling: Unl
Heat Index: 44°   Visibility: 10mi
Dew Point: 35°   Wind: 7mph
Humidity: 71%   Direction: 300°WNW
Pressure: 29.95"   Gusts: NA
Location:  37.93°N, 91.98°W
Report Text: KTBN 270558Z AUTO 30006KT 10SM CLR 07/02 A2995 RMK AO2 SLP149 T00690019 10102 20068 401271011 52003
Loading
Personal Weather Stations






























Interactive Weather Map New forecast layout! Learn more

10-Day Weather Forecast

Advertisements
Track Severe Weather on mobile